Spanish Lake, Missouri
Current Conditions -  °F | °C
As of 10:15 PM on Tuesday 25 Nov 2014 (Local Time) from KALN Reporting Station
Clear Clear  
Wind Chill: 20°   Ceiling: Unl
Heat Index: 27°   Visibility: 10mi
Dew Point: 24°   Wind: 6mph
Humidity: 88%   Direction: 120°ESE
Pressure: 30.18"   Gusts: NA
Location:  38.7995°N, 90.1891°W
Report Text: KALN 260415Z AUTO 12005KT 10SM CLR M03/M05 A3018 RMK AO2 T10301047
Loading
Personal Weather Stations






























Interactive Weather Map New forecast layout! Learn more

10-Day Weather Forecast

Advertisements
Track Severe Weather on mobile